createdAt,value
2022-10-18T00:00:24.410Z,10.74
2022-10-18T00:03:15.767Z,10.71
2022-10-18T00:05:47.739Z,10.69
2022-10-18T00:08:20.044Z,10.66
2022-10-18T00:10:51.837Z,10.62
2022-10-18T00:13:23.736Z,10.58
2022-10-18T00:15:59.396Z,10.52
2022-10-18T00:18:31.546Z,10.45
2022-10-18T00:21:06.445Z,10.40
2022-10-18T00:23:39.048Z,10.35
2022-10-18T00:26:12.861Z,10.29
2022-10-18T00:28:43.125Z,10.25
2022-10-18T00:31:21.008Z,10.22
2022-10-18T00:33:54.894Z,10.22
2022-10-18T00:36:28.123Z,10.21
2022-10-18T00:38:59.778Z,10.21
2022-10-18T00:41:33.987Z,10.24
2022-10-18T00:44:09.035Z,10.27
2022-10-18T00:46:42.027Z,10.30
2022-10-18T00:49:16.789Z,10.31
2022-10-18T00:51:51.077Z,10.30
2022-10-18T00:54:24.535Z,10.27
2022-10-18T00:56:56.590Z,10.21
2022-10-18T00:59:28.642Z,10.15
2022-10-18T01:02:00.299Z,10.11
2022-10-18T01:04:31.914Z,10.07
2022-10-18T01:07:11.734Z,10.02
2022-10-18T01:09:48.301Z,9.99
2022-10-18T01:12:29.250Z,9.95
2022-10-18T01:15:14.250Z,9.92
2022-10-18T01:17:53.274Z,9.90
2022-10-18T01:20:48.895Z,9.91
2022-10-18T01:23:31.182Z,9.96
2022-10-18T01:26:14.540Z,10.02
2022-10-18T01:28:58.455Z,10.09
2022-10-18T01:31:31.578Z,10.15
2022-10-18T01:34:06.322Z,10.21
2022-10-18T01:36:40.969Z,10.26
2022-10-18T01:39:17.293Z,10.29
2022-10-18T01:41:50.917Z,10.32
2022-10-18T01:44:25.611Z,10.33
2022-10-18T01:46:59.457Z,10.34
2022-10-18T01:49:30.793Z,10.34
2022-10-18T01:52:02.326Z,10.32
2022-10-18T01:54:37.470Z,10.30
2022-10-18T01:57:18.095Z,10.27
2022-10-18T01:59:59.376Z,10.24
2022-10-18T02:02:45.673Z,10.21
2022-10-18T02:05:25.488Z,10.18
2022-10-18T02:08:18.785Z,10.18
2022-10-18T02:10:58.312Z,10.19
2022-10-18T02:13:37.229Z,10.21
2022-10-18T02:16:11.929Z,10.24
2022-10-18T02:18:47.994Z,10.26
2022-10-18T02:21:22.453Z,10.28
2022-10-18T02:23:55.302Z,10.27
2022-10-18T02:26:27.074Z,10.23
2022-10-18T02:28:58.616Z,10.22
2022-10-18T02:31:33.031Z,10.20
2022-10-18T02:34:10.001Z,10.18
2022-10-18T02:36:46.479Z,10.16
2022-10-18T02:39:22.057Z,10.15
2022-10-18T02:41:54.353Z,10.14
2022-10-18T02:44:25.974Z,10.12
2022-10-18T02:46:58.035Z,10.10
2022-10-18T02:49:29.763Z,10.12
2022-10-18T02:52:01.179Z,10.13
2022-10-18T02:54:32.735Z,10.15
2022-10-18T02:57:04.066Z,10.19
2022-10-18T02:59:35.372Z,10.22
2022-10-18T03:02:06.804Z,10.25
2022-10-18T03:04:38.191Z,10.27
2022-10-18T03:07:09.504Z,10.26
2022-10-18T03:09:40.897Z,10.25
2022-10-18T03:12:12.389Z,10.23
2022-10-18T03:14:43.700Z,10.21
2022-10-18T03:17:14.986Z,10.18
2022-10-18T03:19:46.331Z,10.16
2022-10-18T03:22:17.702Z,10.12
2022-10-18T03:24:49.087Z,10.10
2022-10-18T03:27:20.457Z,10.08
2022-10-18T03:29:51.794Z,10.04
2022-10-18T03:32:23.105Z,10.02
2022-10-18T03:34:55.093Z,9.99
2022-10-18T03:37:26.383Z,9.98
2022-10-18T03:39:57.675Z,10.01
2022-10-18T03:42:29.120Z,10.04
2022-10-18T03:45:00.736Z,10.07
2022-10-18T03:47:32.096Z,10.09
2022-10-18T03:50:03.394Z,10.10
2022-10-18T03:52:34.830Z,10.09
2022-10-18T03:55:07.843Z,10.07
2022-10-18T03:57:39.161Z,10.04
2022-10-18T04:00:12.957Z,10.01
2022-10-18T04:02:44.413Z,9.97
2022-10-18T04:05:15.827Z,9.92
2022-10-18T04:07:47.629Z,9.89
2022-10-18T04:10:19.904Z,9.84
2022-10-18T04:12:51.259Z,9.80
2022-10-18T04:15:22.894Z,9.77
2022-10-18T04:17:54.180Z,9.77
2022-10-18T04:20:25.838Z,9.77
2022-10-18T04:22:57.817Z,9.79
2022-10-18T04:25:29.977Z,9.82
2022-10-18T04:28:01.341Z,9.84
2022-10-18T04:30:32.762Z,9.84
2022-10-18T04:33:04.105Z,9.85
2022-10-18T04:35:35.523Z,9.83
2022-10-18T04:38:06.849Z,9.79
2022-10-18T04:40:38.281Z,9.76
2022-10-18T04:43:09.619Z,9.72
2022-10-18T04:45:40.977Z,9.68
2022-10-18T04:48:12.331Z,9.63
2022-10-18T04:50:43.680Z,9.60
2022-10-18T04:53:14.987Z,9.56
2022-10-18T04:55:47.758Z,9.52
2022-10-18T04:58:19.572Z,9.48
2022-10-18T05:00:51.324Z,9.47
2022-10-18T05:03:22.666Z,9.48
2022-10-18T05:06:01.943Z,9.52
2022-10-18T05:08:36.535Z,9.56
2022-10-18T05:13:47.175Z,9.61
2022-10-18T05:16:21.427Z,9.61
2022-10-18T05:18:53.051Z,9.63
2022-10-18T05:21:24.455Z,9.63
2022-10-18T05:23:59.035Z,9.63
2022-10-18T05:26:30.569Z,9.64
2022-10-18T05:29:01.995Z,9.62
2022-10-18T05:31:33.636Z,9.61
2022-10-18T05:34:04.990Z,9.59
2022-10-18T05:36:36.369Z,9.56
2022-10-18T05:39:08.321Z,9.58
2022-10-18T05:41:40.004Z,9.62
2022-10-18T05:44:12.123Z,9.67
2022-10-18T05:46:43.926Z,9.77
2022-10-18T05:49:15.977Z,9.89
2022-10-18T05:51:47.309Z,10.01
2022-10-18T05:54:18.884Z,10.13
2022-10-18T05:56:50.349Z,10.24
2022-10-18T05:59:21.816Z,10.33
2022-10-18T06:01:53.176Z,10.43
2022-10-18T06:04:24.811Z,10.52
2022-10-18T06:06:56.570Z,10.60
2022-10-18T06:09:28.844Z,10.67
2022-10-18T06:12:00.205Z,10.74
2022-10-18T06:14:31.880Z,10.82
2022-10-18T06:17:03.202Z,10.89
2022-10-18T06:19:34.521Z,10.97
2022-10-18T06:22:05.896Z,11.05
2022-10-18T06:24:37.250Z,11.18
2022-10-18T06:27:09.646Z,11.31
2022-10-18T06:29:41.660Z,11.44
2022-10-18T06:32:13.146Z,11.58
2022-10-18T06:34:44.573Z,11.72
2022-10-18T06:37:16.315Z,11.84
2022-10-18T06:39:47.787Z,11.95
2022-10-18T06:42:21.891Z,12.06
2022-10-18T06:44:54.197Z,12.16
2022-10-18T06:47:25.551Z,12.25
2022-10-18T06:49:56.879Z,12.34
2022-10-18T06:52:28.273Z,12.43
2022-10-18T06:54:59.554Z,12.51
2022-10-18T06:57:31.777Z,12.59
2022-10-18T07:00:04.312Z,12.68
2022-10-18T07:02:35.663Z,12.79
2022-10-18T07:05:08.244Z,12.92
2022-10-18T07:07:39.722Z,13.07
2022-10-18T07:10:13.258Z,13.22
2022-10-18T07:12:44.743Z,13.38
2022-10-18T07:15:17.974Z,13.52
2022-10-18T07:17:49.516Z,13.68
2022-10-18T07:20:20.904Z,13.86
2022-10-18T07:22:56.715Z,14.00
2022-10-18T07:25:29.903Z,14.18
2022-10-18T07:28:02.091Z,14.42
2022-10-18T07:30:33.472Z,14.93
2022-10-18T07:33:04.786Z,15.80
2022-10-18T07:35:36.136Z,16.83
2022-10-18T07:38:07.526Z,17.86
2022-10-18T07:40:38.924Z,18.97
2022-10-18T07:43:12.184Z,20.17
2022-10-18T07:45:52.258Z,21.37
2022-10-18T07:48:23.726Z,22.44
2022-10-18T07:50:55.439Z,23.40
2022-10-18T07:53:27.165Z,24.31
2022-10-18T07:56:04.533Z,25.25
2022-10-18T07:58:38.762Z,26.16
2022-10-18T08:01:11.259Z,26.95
2022-10-18T08:03:43.671Z,27.68
2022-10-18T08:06:18.123Z,28.31
2022-10-18T08:08:50.156Z,28.94
2022-10-18T08:11:23.418Z,29.50
2022-10-18T08:13:55.135Z,29.84
2022-10-18T08:19:04.391Z,30.90
2022-10-18T08:21:35.777Z,31.44
2022-10-18T08:24:08.178Z,31.99
2022-10-18T08:26:39.591Z,32.45
2022-10-18T08:29:31.546Z,32.47
2022-10-18T08:32:03.392Z,32.56
2022-10-18T08:34:35.064Z,32.71
2022-10-18T08:37:06.592Z,32.95
2022-10-18T08:39:38.108Z,33.45
2022-10-18T08:42:34.499Z,33.88
2022-10-18T08:45:17.965Z,34.18
2022-10-18T08:48:00.087Z,34.31
2022-10-18T08:50:36.797Z,34.55
2022-10-18T08:53:18.855Z,34.50
2022-10-18T08:55:53.426Z,34.74
2022-10-18T08:58:26.776Z,35.31
2022-10-18T09:01:08.091Z,35.73
2022-10-18T09:04:07.638Z,36.20
2022-10-18T09:06:50.523Z,36.67
2022-10-18T09:09:35.364Z,37.14
2022-10-18T09:12:28.289Z,37.34
2022-10-18T09:15:17.620Z,37.69
2022-10-18T09:18:04.267Z,37.92
2022-10-18T09:20:42.134Z,38.24
2022-10-18T09:23:19.622Z,38.24
2022-10-18T09:25:55.574Z,37.43
2022-10-18T09:28:44.312Z,36.47
2022-10-18T09:31:22.557Z,36.03
2022-10-18T09:33:58.157Z,35.68
2022-10-18T09:36:35.721Z,34.72
2022-10-18T09:39:13.231Z,33.49
2022-10-18T09:41:50.009Z,32.35
2022-10-18T09:44:24.161Z,31.17
2022-10-18T09:47:00.818Z,30.11
2022-10-18T09:49:37.358Z,29.35
2022-10-18T09:52:20.800Z,28.67
2022-10-18T09:54:56.627Z,28.10
2022-10-18T09:57:33.864Z,27.69
2022-10-18T10:00:14.101Z,27.38
2022-10-18T10:02:45.732Z,27.43
2022-10-18T10:05:17.958Z,27.60
2022-10-18T10:07:50.672Z,27.85
2022-10-18T10:10:26.093Z,28.39
2022-10-18T10:13:08.406Z,29.39
2022-10-18T10:15:42.547Z,30.42
2022-10-18T10:18:22.591Z,30.91
2022-10-18T10:20:57.244Z,30.95
2022-10-18T10:23:31.545Z,30.97
2022-10-18T10:26:05.962Z,31.24
2022-10-18T10:28:43.718Z,32.00
2022-10-18T10:31:28.319Z,32.86
2022-10-18T10:34:05.122Z,33.73
2022-10-18T10:36:47.205Z,34.74
2022-10-18T10:39:20.226Z,35.58
2022-10-18T10:41:53.856Z,36.14
2022-10-18T10:44:27.897Z,36.56
2022-10-18T10:47:00.375Z,36.95
2022-10-18T10:49:44.662Z,37.34
2022-10-18T10:52:28.811Z,37.57
2022-10-18T10:55:30.427Z,37.86
2022-10-18T10:57:56.550Z,38.14
2022-10-18T11:00:43.823Z,38.39
2022-10-18T11:03:28.482Z,38.45
2022-10-18T11:06:01.965Z,38.49
2022-10-18T11:08:39.159Z,38.62
2022-10-18T11:11:22.867Z,38.75
2022-10-18T11:14:13.551Z,38.94
2022-10-18T11:16:57.450Z,38.99
2022-10-18T11:19:40.049Z,38.80
2022-10-18T11:22:18.433Z,38.71
2022-10-18T11:24:50.364Z,38.72
2022-10-18T11:27:28.566Z,38.73
2022-10-18T11:30:15.250Z,38.57
2022-10-18T11:32:58.620Z,38.49
2022-10-18T11:35:45.512Z,38.33
2022-10-18T11:38:28.519Z,38.08
2022-10-18T11:41:15.470Z,37.89
2022-10-18T11:44:02.654Z,37.69
2022-10-18T11:46:48.713Z,37.45
2022-10-18T11:49:33.925Z,37.28
2022-10-18T11:52:14.285Z,37.02
2022-10-18T11:54:58.362Z,36.80
2022-10-18T11:57:51.821Z,36.63
2022-10-18T12:03:22.652Z,36.29
2022-10-18T12:05:56.742Z,36.10
2022-10-18T12:08:34.945Z,35.93
2022-10-18T12:11:14.500Z,35.65
2022-10-18T12:13:51.342Z,35.42
2022-10-18T12:16:49.595Z,35.30
2022-10-18T12:19:25.418Z,35.29
2022-10-18T12:22:14.915Z,35.33
2022-10-18T12:24:46.269Z,35.60
2022-10-18T12:27:19.322Z,35.75
2022-10-18T12:29:52.678Z,35.83
2022-10-18T12:32:31.034Z,35.77
2022-10-18T12:35:07.835Z,35.67
2022-10-18T12:38:00.726Z,35.70
2022-10-18T12:40:39.639Z,35.63
2022-10-18T12:43:18.055Z,35.02
2022-10-18T12:45:55.690Z,34.19
2022-10-18T12:48:36.405Z,33.46
2022-10-18T12:51:15.402Z,32.69
2022-10-18T12:53:48.738Z,31.99
2022-10-18T12:56:44.065Z,31.40
2022-10-18T12:59:49.589Z,30.68
2022-10-18T13:02:29.876Z,30.04
2022-10-18T13:05:02.395Z,29.55
2022-10-18T13:07:43.218Z,29.16
2022-10-18T13:10:43.683Z,28.79
2022-10-18T13:13:42.182Z,28.30
2022-10-18T13:16:27.758Z,27.92
2022-10-18T13:19:03.678Z,27.54
2022-10-18T13:21:47.149Z,27.16
2022-10-18T13:24:35.070Z,26.71
2022-10-18T13:27:41.337Z,26.38
2022-10-18T13:30:35.158Z,26.13
2022-10-18T13:33:31.606Z,25.90
2022-10-18T13:36:08.286Z,25.64
2022-10-18T13:38:47.817Z,25.35
2022-10-18T13:41:21.978Z,25.09
2022-10-18T13:44:28.304Z,24.89
2022-10-18T13:47:15.745Z,24.69
2022-10-18T13:50:16.863Z,24.54
2022-10-18T13:53:27.244Z,24.33
2022-10-18T13:56:11.673Z,24.11
2022-10-18T13:59:13.483Z,23.89
2022-10-18T14:01:57.212Z,23.67
2022-10-18T14:05:17.018Z,23.52
2022-10-18T14:08:05.671Z,23.29
2022-10-18T14:11:01.742Z,23.15
2022-10-18T14:13:40.564Z,23.04
2022-10-18T14:16:28.878Z,22.93
2022-10-18T14:19:09.338Z,22.81
2022-10-18T14:21:48.806Z,22.71
2022-10-18T14:24:25.677Z,22.62
2022-10-18T14:27:20.111Z,22.53
2022-10-18T14:30:07.618Z,22.44
2022-10-18T14:32:43.651Z,22.32
2022-10-18T14:35:38.140Z,22.21
2022-10-18T14:38:16.342Z,22.10
2022-10-18T14:40:48.031Z,21.98
2022-10-18T14:43:21.908Z,21.88
2022-10-18T14:45:53.239Z,21.78
2022-10-18T14:48:25.213Z,21.66
2022-10-18T14:51:00.537Z,21.59
2022-10-18T14:53:38.516Z,21.53
2022-10-18T14:56:21.225Z,21.43
2022-10-18T14:58:53.874Z,21.33
2022-10-18T15:01:28.923Z,21.25
2022-10-18T15:04:06.067Z,21.17
2022-10-18T15:06:37.710Z,21.08
2022-10-18T15:09:11.100Z,20.99
2022-10-18T15:11:44.897Z,20.89
2022-10-18T15:14:19.961Z,20.80
2022-10-18T15:16:56.406Z,20.72
2022-10-18T15:19:33.871Z,20.64
2022-10-18T15:22:30.707Z,20.55
2022-10-18T15:25:16.749Z,20.44
2022-10-18T15:27:51.104Z,20.31
2022-10-18T15:30:28.139Z,20.24
2022-10-18T15:33:01.471Z,20.17
2022-10-18T15:35:35.047Z,20.10
2022-10-18T15:38:15.283Z,20.02
2022-10-18T15:40:46.670Z,19.92
2022-10-18T15:43:40.531Z,19.85
2022-10-18T15:46:33.020Z,19.77
2022-10-18T15:49:52.299Z,19.69
2022-10-18T15:52:41.414Z,19.61
2022-10-18T15:55:48.401Z,19.52
2022-10-18T15:58:29.072Z,19.43
2022-10-18T16:01:02.313Z,19.35
2022-10-18T16:03:36.039Z,19.29
2022-10-18T16:06:12.310Z,19.24
2022-10-18T16:08:50.323Z,19.18
2022-10-18T16:11:23.686Z,19.11
2022-10-18T16:13:56.607Z,19.06
2022-10-18T16:16:31.578Z,19.03
2022-10-18T16:19:03.492Z,18.98
2022-10-18T16:21:38.290Z,18.94
2022-10-18T16:24:10.653Z,18.91
2022-10-18T16:26:42.252Z,18.89
2022-10-18T16:29:16.691Z,18.87
2022-10-18T16:31:50.995Z,18.83
2022-10-18T16:34:22.549Z,18.80
2022-10-18T16:36:54.009Z,18.76
2022-10-18T16:39:25.966Z,18.71
2022-10-18T16:41:57.414Z,18.67
2022-10-18T16:44:28.973Z,18.63
2022-10-18T16:47:00.523Z,18.58
2022-10-18T16:49:32.195Z,18.55
2022-10-18T16:52:03.840Z,18.54
2022-10-18T16:54:35.908Z,18.53
2022-10-18T16:57:07.574Z,18.51
2022-10-18T16:59:40.273Z,18.48
2022-10-18T17:02:12.418Z,18.46
2022-10-18T17:04:43.877Z,18.44
2022-10-18T17:07:24.331Z,18.44
2022-10-18T17:09:56.029Z,18.44
2022-10-18T17:12:27.674Z,18.44
2022-10-18T17:14:59.097Z,18.44
2022-10-18T17:17:30.934Z,18.44
2022-10-18T17:20:04.896Z,18.43
2022-10-18T17:22:35.412Z,18.43
2022-10-18T17:25:07.986Z,18.43
2022-10-18T17:27:39.324Z,18.42
2022-10-18T17:30:14.621Z,18.41
2022-10-18T17:32:46.033Z,18.41
2022-10-18T17:35:17.681Z,18.40
2022-10-18T17:37:52.307Z,18.37
2022-10-18T17:40:24.332Z,18.36
2022-10-18T17:42:56.351Z,18.37
2022-10-18T17:45:27.997Z,18.37
2022-10-18T17:47:59.561Z,18.37
2022-10-18T17:50:31.115Z,18.36
2022-10-18T17:53:02.659Z,18.36
2022-10-18T17:55:35.136Z,18.33
2022-10-18T17:58:06.769Z,18.33
2022-10-18T18:00:38.452Z,18.32
2022-10-18T18:03:10.081Z,18.32
2022-10-18T18:05:41.517Z,18.30
2022-10-18T18:08:12.909Z,18.30
2022-10-18T18:10:44.735Z,18.28
2022-10-18T18:13:18.958Z,18.27
2022-10-18T18:15:51.265Z,18.27
2022-10-18T18:18:22.730Z,18.26
2022-10-18T18:20:55.369Z,18.24
2022-10-18T18:23:27.060Z,18.22
2022-10-18T18:26:00.049Z,18.21
2022-10-18T18:28:31.531Z,18.20
2022-10-18T18:31:05.821Z,18.19
2022-10-18T18:33:38.000Z,18.19
2022-10-18T18:36:10.577Z,18.18
2022-10-18T18:38:43.509Z,18.19
2022-10-18T18:41:17.064Z,18.18
2022-10-18T18:43:54.758Z,18.16
2022-10-18T18:46:28.265Z,18.16
2022-10-18T18:49:01.202Z,18.15
2022-10-18T18:51:33.318Z,18.14
2022-10-18T18:54:05.307Z,18.12
2022-10-18T18:56:36.735Z,18.11
2022-10-18T18:59:08.697Z,18.10
2022-10-18T19:01:41.010Z,18.08
2022-10-18T19:04:13.034Z,18.05
2022-10-18T19:06:46.429Z,18.02
2022-10-18T19:09:22.203Z,18.02
2022-10-18T19:11:55.486Z,17.99
2022-10-18T19:14:29.185Z,17.95
2022-10-18T19:17:01.748Z,17.92
2022-10-18T19:19:34.132Z,17.90
2022-10-18T19:22:08.554Z,17.87
2022-10-18T19:24:39.923Z,17.82
2022-10-18T19:27:13.073Z,17.78
2022-10-18T19:29:46.047Z,17.73
2022-10-18T19:32:18.963Z,17.67
2022-10-18T19:34:50.424Z,17.60
2022-10-18T19:37:21.811Z,17.52
2022-10-18T19:39:53.187Z,17.47
2022-10-18T19:42:31.763Z,17.40
2022-10-18T19:45:03.348Z,17.34
2022-10-18T19:47:34.932Z,17.28
2022-10-18T19:50:07.419Z,17.22
2022-10-18T19:52:38.813Z,17.17
2022-10-18T19:55:10.867Z,17.13
2022-10-18T19:57:42.195Z,17.04
2022-10-18T20:00:19.306Z,16.95
2022-10-18T20:02:50.941Z,16.90
2022-10-18T20:05:22.441Z,16.86
2022-10-18T20:07:53.899Z,16.81
2022-10-18T20:10:25.308Z,16.79
2022-10-18T20:12:56.590Z,16.75
2022-10-18T20:15:28.242Z,16.72
2022-10-18T20:17:59.597Z,16.67
2022-10-18T20:20:30.949Z,16.63
2022-10-18T20:23:02.266Z,16.59
2022-10-18T20:25:33.593Z,16.54
2022-10-18T20:28:05.840Z,16.50
2022-10-18T20:30:37.337Z,16.45
2022-10-18T20:33:08.647Z,16.39
2022-10-18T20:35:40.074Z,16.34
2022-10-18T20:38:11.453Z,16.30
2022-10-18T20:40:42.798Z,16.25
2022-10-18T20:43:15.156Z,16.21
2022-10-18T20:45:46.516Z,16.14
2022-10-18T20:48:17.921Z,16.09
2022-10-18T20:50:49.283Z,16.06
2022-10-18T20:53:22.225Z,16.05
2022-10-18T20:55:53.571Z,16.04
2022-10-18T20:58:24.867Z,16.04
2022-10-18T21:00:56.181Z,16.05
2022-10-18T21:03:27.748Z,16.06
2022-10-18T21:06:02.155Z,16.07
2022-10-18T21:08:33.463Z,16.06
2022-10-18T21:11:04.793Z,16.03
2022-10-18T21:13:36.608Z,16.00
2022-10-18T21:16:08.924Z,15.97
2022-10-18T21:18:41.160Z,15.93
2022-10-18T21:21:14.854Z,15.89
2022-10-18T21:23:45.183Z,15.83
2022-10-18T21:26:19.101Z,15.77
2022-10-18T21:28:52.144Z,15.70
2022-10-18T21:31:25.494Z,15.64
2022-10-18T21:33:58.187Z,15.59
2022-10-18T21:36:31.788Z,15.53
2022-10-18T21:39:03.517Z,15.49
2022-10-18T21:41:36.430Z,15.47
2022-10-18T21:44:10.751Z,15.49
2022-10-18T21:46:43.945Z,15.49
2022-10-18T21:49:16.628Z,15.49
2022-10-18T21:51:47.995Z,15.49
2022-10-18T21:54:19.931Z,15.48
2022-10-18T21:56:51.951Z,15.45
2022-10-18T21:59:23.618Z,15.38
2022-10-18T22:01:54.932Z,15.32
2022-10-18T22:04:27.340Z,15.27
2022-10-18T22:06:59.554Z,15.21
2022-10-18T22:09:31.203Z,15.18
2022-10-18T22:12:02.868Z,15.13
2022-10-18T22:14:34.314Z,15.11
2022-10-18T22:17:06.026Z,15.11
2022-10-18T22:19:37.326Z,15.11
2022-10-18T22:22:08.676Z,15.13
2022-10-18T22:24:40.480Z,15.14
2022-10-18T22:27:11.909Z,15.14
2022-10-18T22:29:43.517Z,15.14
2022-10-18T22:32:14.915Z,15.12
2022-10-18T22:34:46.979Z,15.08
2022-10-18T22:37:18.431Z,15.06
2022-10-18T22:39:49.766Z,15.03
2022-10-18T22:42:21.108Z,15.00
2022-10-18T22:44:52.481Z,15.00
2022-10-18T22:47:24.313Z,14.98
2022-10-18T22:49:55.653Z,14.97
2022-10-18T22:52:27.005Z,14.99
2022-10-18T22:54:58.315Z,15.00
2022-10-18T22:57:31.197Z,15.01
2022-10-18T23:00:02.874Z,15.01
2022-10-18T23:02:35.122Z,15.01
2022-10-18T23:05:08.159Z,15.00
2022-10-18T23:07:39.531Z,14.98
2022-10-18T23:10:11.504Z,14.97
2022-10-18T23:12:42.857Z,14.96
2022-10-18T23:15:14.504Z,14.94
2022-10-18T23:17:45.821Z,14.91
2022-10-18T23:20:17.551Z,14.88
2022-10-18T23:22:48.862Z,14.87
2022-10-18T23:25:20.789Z,14.87
2022-10-18T23:27:52.148Z,14.90
2022-10-18T23:30:23.479Z,14.93
2022-10-18T23:32:54.823Z,14.96
2022-10-18T23:35:26.325Z,14.98
2022-10-18T23:37:57.686Z,14.97
2022-10-18T23:40:29.026Z,14.94
2022-10-18T23:43:00.343Z,14.88
2022-10-18T23:45:31.632Z,14.80
2022-10-18T23:48:02.917Z,14.72
2022-10-18T23:50:34.386Z,14.65
2022-10-18T23:53:05.710Z,14.57
2022-10-18T23:55:37.024Z,14.55
2022-10-18T23:58:08.357Z,14.51
